Aérodrome :
LOGIN :

S'inscrire | Disclaimer

   EN    FR    IT 

 










Légende :    VFR   VFR Marginal   IFR   IFR Intensif   IFR Très Intensif
Visi : 
Plafond : 
>= 8 km
>= 3000ft
5 à 8 km
1000 à 3000 ft
1500m à 5 km
500 à 1000 ft
800 à 1500m
200 à 500 ft
< 800m
< 200 ft
Symboles :   Orages  Brouillard  Fortes neiges  Fortes précipitations  Vent > 20 kt
SIGMETs :   Divers  Orages  Givrage  Turbulence  Onde Orograph.  Cendres Volcan.







- Altitude de l'aérodrome : 287 ft
- Voir les cartes d'approche


LFRL - Lanveoc Poulmic

DERNIER METAR :
  • 180630Z AUTO 27006KT 9999 SCT042 BKN054 BKN064 15/13 Q1015 NOSIG

METARs EXPIRÉS :
  • 180600Z AUTO 25006KT CAVOK 15/13 Q1015 NOSIG
  • 180530Z AUTO 25005KT CAVOK 15/14 Q1015 NOSIG
  • 180500Z AUTO 28006KT 9999 FEW008/// BKN046/// BKN054/// ///CB 15/13 Q1015
  • 180430Z AUTO 26009G20KT 230V290 8000 BKN006/// BKN010/// BKN021/// ///TCU 16/15 Q1015
  • 180400Z AUTO 25007KT 9999 BKN005/// OVC012/// ///TCU 16/15 Q1015

TAF TAF LFRL
Valide du 18 à 06h jusqu'au 18 à 15h UTC


180500Z 1806/1815 28007KT 9999 FEW007 BKN015
BECMG 1806/1809 SCT020
PROB30
TEMPO 1812/1815 28013G23KT
Pas de NOTAMs connus pour ce terrain.



MET'MAP, la Météo Aéronautique d'un coup d'oeil ! - Copyright ORBIFLY Décembre 2007 - Disclaimer

ORBIFLY MET'MAP TEAM :

Programmation & Développement : Alexandra Zaïnal
Conception & Développement : Baudouin d'Aumeries
Co-Programmation & Développement : Marc-Olivier Méhu
Soutien technique & logistique : Manuel Goepfert

Contact : metmap@orbifly.com




SOURCES & CREDITS :

   NOAA